Airfield :
LOGIN :

Register | Disclaimer

   EN    FR    IT 

 










Legend :    VFR   Marginal VFR   IFR   Intensive IFR   Very Intensive IFR
Visi :
Ceiling :
>= 8 km
>= 3000ft
5 to 8 km
1000 to 3000 ft
1500m to 5 km
500 to 1000 ft
800 to 1500m
200 to 500 ft
< 800m
< 200 ft
Symbols :   Thunderstorms  Fog  Heavy snow  Heavy precipitations  Wind > 20 kt
SIGMETs :     Misc.  Thunderstorms  Icing  Turbulence  Mountain Waves  Volcanic Ashes






- Airport Elevation : 10 ft
- IATA code : AAL


EKYT - Aalborg

CURRENT METAR :
  • 070812Z AUTO 21017KT 9999 -DZ FEW021/// BKN040/// BKN060/// 14/12 Q1013

EXPIRED METARs :
  • 070811Z AUTO 21017KT 8000 -DZ FEW018/// SCT042/// BKN049/// 14/12 Q1013
  • 070750Z AUTO 21017KT 9999 FEW023/// SCT041/// BKN055/// 15/12 Q1013
  • 070720Z AUTO 21018KT 9999 FEW023/// SCT037/// BKN055/// 15/12 Q1013
  • 070650Z AUTO 21018KT 9999 FEW020/// SCT032/// BKN050/// 15/12 Q1013
  • 070620Z AUTO 21017KT 9999 FEW019/// SCT024/// BKN029/// OVC050/// 15/12 Q1013
  • 070550Z AUTO 21017KT 9999 FEW019/// SCT028/// BKN032/// OVC050/// 15/12 Q1013
  • 070520Z AUTO 21016KT 9999 FEW019/// SCT027/// BKN032/// OVC060/// 15/12 Q1014

TAF TAF EKYT
Valid from the 07 at 06:00 until the 08 at 06:00 UTC


070500Z 0706/0806 22015KT 9999 SCT020
TEMPO 0706/0709 22015G25KT 7000 -RA BKN012
TEMPO 0709/0717 23020G32KT 7000 -SHRA SCT012TCU
BECMG 0717/0720 22020G33KT 3000 RA BKN008 SCT020CB
BECMG 0720/0723 23012KT 9999 NSW SCT020
TEMPO 0723/0806 23012G22KT 5000 SHRA BKN012 SCT020CB



MET'MAP, your aeronautical weather chart ! - Copyright ORBIFLY December 2007 - Disclaimer

ORBIFLY MET'MAP TEAM :

Programming & Development : Alexandra Zaïnal
Original concept : Baudouin d'Aumeries
Technical & hardware support : Manuel Goepfert
Assistance : Marc-Olivier Méhu




SOURCES & CREDITS :

   NOAA